4°C Temp
4°C Dewpoint
% Humidity
Temperature
11 KM/H
7 MPH
6 KTS
170°
Due South

Wind Speed
Misty
Conditions
Pressure 1001.92 (hPa) - 29.59 (in)
Visibility 1.5 (mi) - 2.4 (km)

Current Conditions
EHLW
Location 6km (3.2mi)
Metar :EHLW 112031Z AUTO 17006KT 150V210 2400 R23/2900D BR FEW003 OVC200 04/04 Q1002 YLO 17005KT 2000 BR BKN200 TEMPO FEW004 BKN006
Wed 11th December 21:31 pm

Airport
  Metar Aviation API Data Provided by https://www.checkwx.com/ PHP scripts by weather34.com ©2019